createdAt,value
2022-10-23T00:00:49.306Z,1.63
2022-10-23T00:03:15.858Z,1.71
2022-10-23T00:05:47.280Z,1.49
2022-10-23T00:08:15.934Z,1.71
2022-10-23T00:10:43.305Z,1.71
2022-10-23T00:13:10.687Z,1.70
2022-10-23T00:15:38.555Z,1.55
2022-10-23T00:18:07.580Z,1.52
2022-10-23T00:20:34.428Z,1.70
2022-10-23T00:23:01.016Z,1.53
2022-10-23T00:25:28.597Z,1.82
2022-10-23T00:27:55.377Z,1.60
2022-10-23T00:30:24.083Z,1.71
2022-10-23T00:32:51.588Z,1.75
2022-10-23T00:35:22.010Z,2.00
2022-10-23T00:37:49.041Z,2.13
2022-10-23T00:40:19.477Z,2.10
2022-10-23T00:42:49.877Z,1.89
2022-10-23T00:45:17.129Z,1.87
2022-10-23T00:47:44.525Z,1.93
2022-10-23T00:50:12.757Z,1.92
2022-10-23T00:52:40.481Z,2.10
2022-10-23T00:55:08.664Z,1.98
2022-10-23T00:57:36.186Z,1.93
2022-10-23T01:00:03.467Z,1.84
2022-10-23T01:02:29.935Z,1.90
2022-10-23T01:04:56.723Z,2.04
2022-10-23T01:07:23.729Z,1.81
2022-10-23T01:09:50.689Z,2.27
2022-10-23T01:12:19.348Z,2.54
2022-10-23T01:14:47.341Z,2.42
2022-10-23T01:17:17.022Z,2.36
2022-10-23T01:19:44.387Z,2.48
2022-10-23T01:22:11.420Z,2.36
2022-10-23T01:24:38.360Z,1.94
2022-10-23T01:27:06.056Z,2.61
2022-10-23T01:29:32.606Z,2.59
2022-10-23T01:31:59.294Z,2.28
2022-10-23T01:34:26.706Z,2.32
2022-10-23T01:36:54.058Z,1.97
2022-10-23T01:39:21.479Z,1.87
2022-10-23T01:41:48.128Z,1.61
2022-10-23T01:44:14.633Z,1.69
2022-10-23T01:46:43.138Z,1.71
2022-10-23T01:49:14.774Z,1.67
2022-10-23T01:51:43.147Z,1.74
2022-10-23T01:54:10.076Z,1.37
2022-10-23T01:56:36.823Z,1.43
2022-10-23T01:59:05.317Z,1.53
2022-10-23T02:01:32.307Z,1.55
2022-10-23T02:06:26.129Z,1.46
2022-10-23T02:08:53.123Z,1.54
2022-10-23T02:11:19.950Z,1.56
2022-10-23T02:13:46.569Z,1.79
2022-10-23T02:16:13.459Z,1.44
2022-10-23T02:18:42.945Z,1.59
2022-10-23T02:21:12.899Z,1.41
2022-10-23T02:23:39.631Z,1.73
2022-10-23T02:26:08.641Z,1.63
2022-10-23T02:28:38.519Z,1.63
2022-10-23T02:31:07.007Z,1.59
2022-10-23T02:33:35.774Z,1.49
2022-10-23T02:36:12.876Z,1.56
2022-10-23T02:38:40.446Z,1.64
2022-10-23T02:41:11.122Z,1.54
2022-10-23T02:43:38.070Z,1.37
2022-10-23T02:46:06.836Z,2.06
2022-10-23T02:48:35.676Z,2.35
2022-10-23T02:51:02.628Z,2.04
2022-10-23T02:53:29.572Z,1.86
2022-10-23T02:55:57.202Z,1.81
2022-10-23T02:58:24.192Z,1.89
2022-10-23T03:00:51.157Z,2.04
2022-10-23T03:03:18.039Z,2.03
2022-10-23T03:05:45.835Z,2.16
2022-10-23T03:08:12.834Z,2.17
2022-10-23T03:10:39.891Z,2.09
2022-10-23T03:13:07.216Z,1.94
2022-10-23T03:15:33.977Z,2.10
2022-10-23T03:18:05.235Z,1.94
2022-10-23T03:20:33.501Z,1.91
2022-10-23T03:23:03.727Z,1.79
2022-10-23T03:25:33.506Z,1.76
2022-10-23T03:28:03.244Z,1.80
2022-10-23T03:30:30.063Z,1.79
2022-10-23T03:32:57.713Z,1.69
2022-10-23T03:35:24.330Z,2.09
2022-10-23T03:37:51.828Z,1.89
2022-10-23T03:40:21.323Z,1.69
2022-10-23T03:42:48.696Z,1.68
2022-10-23T03:45:18.995Z,1.65
2022-10-23T03:47:45.954Z,1.59
2022-10-23T03:50:17.299Z,1.52
2022-10-23T03:52:44.254Z,1.60
2022-10-23T03:55:11.071Z,1.57
2022-10-23T03:57:38.342Z,1.57
2022-10-23T04:00:05.167Z,1.39
2022-10-23T04:02:32.045Z,1.47
2022-10-23T04:05:03.241Z,1.57
2022-10-23T04:07:29.996Z,1.46
2022-10-23T04:09:58.677Z,1.51
2022-10-23T04:12:35.876Z,1.43
2022-10-23T04:15:03.323Z,1.61
2022-10-23T04:17:36.220Z,1.44
2022-10-23T04:20:02.879Z,1.77
2022-10-23T04:22:30.365Z,1.56
2022-10-23T04:24:57.631Z,1.42
2022-10-23T04:27:24.334Z,1.37
2022-10-23T04:29:54.252Z,1.35
2022-10-23T04:32:23.657Z,1.63
2022-10-23T04:34:50.377Z,1.50
2022-10-23T04:37:18.129Z,1.48
2022-10-23T04:39:45.100Z,1.45
2022-10-23T04:42:12.027Z,1.45
2022-10-23T04:44:39.004Z,1.41
2022-10-23T04:47:05.794Z,1.39
2022-10-23T04:49:32.740Z,1.40
2022-10-23T04:51:59.613Z,1.49
2022-10-23T04:54:26.527Z,2.07
2022-10-23T04:56:53.380Z,1.57
2022-10-23T04:59:20.563Z,1.53
2022-10-23T05:01:48.255Z,1.65
2022-10-23T05:04:15.549Z,1.92
2022-10-23T05:06:42.562Z,1.46
2022-10-23T05:09:09.221Z,1.58
2022-10-23T05:11:36.550Z,1.59
2022-10-23T05:14:03.422Z,1.58
2022-10-23T05:16:32.271Z,1.45
2022-10-23T05:19:03.071Z,1.32
2022-10-23T05:21:30.073Z,1.57
2022-10-23T05:23:56.804Z,1.37
2022-10-23T05:26:24.626Z,1.65
2022-10-23T05:28:51.321Z,1.38
2022-10-23T05:31:18.334Z,1.29
2022-10-23T05:33:46.052Z,1.59
2022-10-23T05:36:12.583Z,1.73
2022-10-23T05:38:40.084Z,1.62
2022-10-23T05:41:07.464Z,1.61
2022-10-23T05:43:34.385Z,1.63
2022-10-23T05:46:02.173Z,1.68
2022-10-23T05:48:34.733Z,1.48
2022-10-23T05:51:01.731Z,1.55
2022-10-23T05:53:30.172Z,1.75
2022-10-23T05:55:56.901Z,1.94
2022-10-23T05:58:24.286Z,1.81
2022-10-23T06:00:58.392Z,1.93
2022-10-23T06:03:25.989Z,1.92
2022-10-23T06:05:53.591Z,1.93
2022-10-23T06:08:20.749Z,2.10
2022-10-23T06:10:48.574Z,2.36
2022-10-23T06:13:15.248Z,2.01
2022-10-23T06:15:42.395Z,2.07
2022-10-23T06:18:09.474Z,2.16
2022-10-23T06:20:36.433Z,2.02
2022-10-23T06:23:03.368Z,2.12
2022-10-23T06:25:30.933Z,2.32
2022-10-23T06:28:04.461Z,2.29
2022-10-23T06:30:32.276Z,3.14
2022-10-23T06:33:03.311Z,2.97
2022-10-23T06:35:34.713Z,3.65
2022-10-23T06:38:01.733Z,3.81
2022-10-23T06:40:29.358Z,2.61
2022-10-23T06:42:58.080Z,2.71
2022-10-23T06:45:24.959Z,3.06
2022-10-23T06:47:52.026Z,3.19
2022-10-23T06:50:19.185Z,2.87
2022-10-23T06:52:47.664Z,2.90
2022-10-23T06:55:15.100Z,2.78
2022-10-23T06:57:42.925Z,2.24
2022-10-23T07:00:09.951Z,2.33
2022-10-23T07:02:37.199Z,2.41
2022-10-23T07:05:07.641Z,2.38
2022-10-23T07:07:36.498Z,2.26
2022-10-23T07:10:03.942Z,2.14
2022-10-23T07:12:30.806Z,2.72
2022-10-23T07:14:57.734Z,3.91
2022-10-23T07:17:26.569Z,3.34
2022-10-23T07:19:54.310Z,2.81
2022-10-23T07:22:21.127Z,2.78
2022-10-23T07:24:48.147Z,3.00
2022-10-23T07:27:14.907Z,2.76
2022-10-23T07:29:43.421Z,2.88
2022-10-23T07:32:10.166Z,3.34
2022-10-23T07:34:44.547Z,3.65
2022-10-23T07:37:12.183Z,3.89
2022-10-23T07:39:39.170Z,3.99
2022-10-23T07:42:08.042Z,4.95
2022-10-23T07:44:35.126Z,5.60
2022-10-23T07:47:02.819Z,5.64
2022-10-23T07:49:32.881Z,5.05
2022-10-23T07:51:59.915Z,5.28
2022-10-23T07:54:26.687Z,5.62
2022-10-23T07:56:53.802Z,4.96
2022-10-23T07:59:21.067Z,4.57
2022-10-23T08:01:49.545Z,4.69
2022-10-23T08:04:20.116Z,5.03
2022-10-23T08:06:47.054Z,4.99
2022-10-23T08:09:13.897Z,4.84
2022-10-23T08:11:40.924Z,4.92
2022-10-23T08:14:07.937Z,4.56
2022-10-23T08:16:34.705Z,4.12
2022-10-23T08:19:01.373Z,4.22
2022-10-23T08:21:27.929Z,4.15
2022-10-23T08:23:54.762Z,3.84
2022-10-23T08:26:21.559Z,3.64
2022-10-23T08:28:49.963Z,3.57
2022-10-23T08:31:17.202Z,3.42
2022-10-23T08:33:44.715Z,3.61
2022-10-23T08:36:13.616Z,3.62
2022-10-23T08:38:40.559Z,4.94
2022-10-23T08:41:07.855Z,3.58
2022-10-23T08:43:34.705Z,3.26
2022-10-23T08:46:03.342Z,3.35
2022-10-23T08:48:32.648Z,3.50
2022-10-23T08:51:00.135Z,3.46
2022-10-23T08:53:27.166Z,3.44
2022-10-23T08:55:54.160Z,3.51
2022-10-23T08:58:22.017Z,3.65
2022-10-23T09:00:49.056Z,4.91
2022-10-23T09:03:16.045Z,3.90
2022-10-23T09:05:42.964Z,3.41
2022-10-23T09:08:10.199Z,3.60
2022-10-23T09:10:37.730Z,3.79
2022-10-23T09:13:07.556Z,3.57
2022-10-23T09:15:35.146Z,3.43
2022-10-23T09:18:02.271Z,3.40
2022-10-23T09:20:28.860Z,3.36
2022-10-23T09:22:56.031Z,3.59
2022-10-23T09:25:24.179Z,3.68
2022-10-23T09:27:53.287Z,3.84
2022-10-23T09:30:22.871Z,3.84
2022-10-23T09:32:49.737Z,3.96
2022-10-23T09:35:18.366Z,3.94
2022-10-23T09:37:45.566Z,3.81
2022-10-23T09:40:12.654Z,4.83
2022-10-23T09:42:39.476Z,4.00
2022-10-23T09:45:10.367Z,4.20
2022-10-23T09:47:38.109Z,4.07
2022-10-23T09:50:05.132Z,4.26
2022-10-23T09:52:33.129Z,4.81
2022-10-23T09:55:02.001Z,4.38
2022-10-23T09:57:28.996Z,5.09
2022-10-23T09:59:56.064Z,4.95
2022-10-23T10:02:23.698Z,5.01
2022-10-23T10:04:52.214Z,5.09
2022-10-23T10:07:20.335Z,4.77
2022-10-23T10:09:51.662Z,4.48
2022-10-23T10:12:19.142Z,4.59
2022-10-23T10:14:45.772Z,4.13
2022-10-23T10:17:13.364Z,4.19
2022-10-23T10:19:41.910Z,3.98
2022-10-23T10:22:10.880Z,4.14
2022-10-23T10:24:38.311Z,3.74
2022-10-23T10:27:04.901Z,3.77
2022-10-23T10:29:31.760Z,3.94
2022-10-23T10:31:59.414Z,4.15
2022-10-23T10:34:26.252Z,4.55
2022-10-23T10:36:53.173Z,4.40
2022-10-23T10:39:25.468Z,4.17
2022-10-23T10:41:56.039Z,3.66
2022-10-23T10:56:30.412Z,3.56
2022-10-23T10:58:57.392Z,4.30
2022-10-23T11:01:25.078Z,3.94
2022-10-23T11:03:56.945Z,4.11
2022-10-23T11:06:23.552Z,4.05
2022-10-23T11:08:58.068Z,4.15
2022-10-23T11:11:32.707Z,4.13
2022-10-23T11:13:59.494Z,4.10
2022-10-23T11:16:26.337Z,3.68
2022-10-23T11:18:53.990Z,4.66
2022-10-23T11:21:21.245Z,4.27
2022-10-23T11:23:48.383Z,4.30
2022-10-23T11:26:19.686Z,4.07
2022-10-23T11:28:47.036Z,4.41
2022-10-23T11:31:18.611Z,4.03
2022-10-23T11:33:47.179Z,4.54
2022-10-23T11:38:56.032Z,4.11
2022-10-23T11:41:26.837Z,4.33
2022-10-23T11:43:55.993Z,4.21
2022-10-23T11:46:23.041Z,4.44
2022-10-23T11:48:50.595Z,4.60
2022-10-23T11:51:18.165Z,4.35
2022-10-23T11:53:45.038Z,4.79
2022-10-23T11:56:15.390Z,4.95
2022-10-23T11:58:42.903Z,4.79
2022-10-23T12:01:12.184Z,4.57
2022-10-23T12:03:38.898Z,4.34
2022-10-23T12:06:06.807Z,4.18
2022-10-23T12:08:33.479Z,4.23
2022-10-23T12:11:02.814Z,4.41
2022-10-23T12:13:31.362Z,4.39
2022-10-23T12:16:00.748Z,4.25
2022-10-23T12:18:28.945Z,4.51
2022-10-23T12:20:57.097Z,4.38
2022-10-23T12:23:26.046Z,5.03
2022-10-23T12:25:53.925Z,4.88
2022-10-23T12:28:21.751Z,4.76
2022-10-23T12:30:49.242Z,4.88
2022-10-23T12:33:17.319Z,5.22
2022-10-23T12:35:48.935Z,4.84
2022-10-23T12:38:16.086Z,4.56
2022-10-23T12:43:26.342Z,5.15
2022-10-23T12:45:53.388Z,4.86
2022-10-23T12:48:20.140Z,4.82
2022-10-23T12:53:57.161Z,4.74
2022-10-23T12:56:29.523Z,4.61
2022-10-23T12:59:00.649Z,4.59
2022-10-23T13:01:27.914Z,4.64
2022-10-23T13:03:57.727Z,5.17
2022-10-23T13:06:25.355Z,4.97
2022-10-23T13:08:53.255Z,4.96
2022-10-23T13:11:20.780Z,4.47
2022-10-23T13:13:50.834Z,4.72
2022-10-23T13:16:20.936Z,4.81
2022-10-23T13:18:48.180Z,4.78
2022-10-23T13:21:15.394Z,4.96
2022-10-23T13:23:53.494Z,4.65
2022-10-23T13:26:24.620Z,4.46
2022-10-23T13:28:55.032Z,4.27
2022-10-23T13:31:32.707Z,4.64
2022-10-23T13:34:01.538Z,4.61
2022-10-23T13:39:13.374Z,4.55
2022-10-23T13:41:40.189Z,4.57
2022-10-23T13:44:07.612Z,4.93
2022-10-23T13:46:35.698Z,4.84
2022-10-23T13:49:08.318Z,4.06
2022-10-23T13:51:38.808Z,4.13
2022-10-23T13:54:10.295Z,4.42
2022-10-23T13:56:38.028Z,4.45
2022-10-23T13:59:07.606Z,4.52
2022-10-23T14:01:39.227Z,4.41
2022-10-23T14:04:08.287Z,4.53
2022-10-23T14:09:15.888Z,4.37
2022-10-23T14:11:50.019Z,4.48
2022-10-23T14:14:17.558Z,5.00
2022-10-23T14:22:04.239Z,4.50
2022-10-23T14:24:31.254Z,4.93
2022-10-23T14:27:00.175Z,4.94
2022-10-23T14:29:28.628Z,4.72
2022-10-23T14:31:56.302Z,4.85
2022-10-23T14:34:23.794Z,4.68
2022-10-23T14:37:03.726Z,4.35
2022-10-23T14:39:40.359Z,4.23
2022-10-23T14:42:07.593Z,4.77
2022-10-23T14:44:34.449Z,4.42
2022-10-23T14:47:03.989Z,4.34
2022-10-23T14:49:41.193Z,4.73
2022-10-23T14:54:48.724Z,5.01
2022-10-23T14:57:42.688Z,4.97
2022-10-23T15:00:16.703Z,5.41
2022-10-23T15:02:51.279Z,5.23
2022-10-23T15:08:07.853Z,4.92
2022-10-23T15:10:37.233Z,4.83
2022-10-23T15:15:50.564Z,4.52
2022-10-23T15:18:17.854Z,4.32
2022-10-23T15:24:03.337Z,4.73
2022-10-23T15:26:30.804Z,4.36
2022-10-23T15:28:58.488Z,4.46
2022-10-23T15:31:25.621Z,5.05
2022-10-23T15:33:52.803Z,4.48
2022-10-23T15:36:20.391Z,4.47
2022-10-23T15:38:50.526Z,4.59
2022-10-23T15:44:06.186Z,4.66
2022-10-23T15:46:33.674Z,4.59
2022-10-23T15:49:03.570Z,4.34
2022-10-23T15:51:30.650Z,4.56
2022-10-23T15:54:02.116Z,4.57
2022-10-23T15:56:35.038Z,4.85
2022-10-23T15:59:03.797Z,5.06
2022-10-23T16:01:35.474Z,5.77
2022-10-23T16:04:03.024Z,5.97
2022-10-23T16:06:33.471Z,5.14
2022-10-23T16:11:40.728Z,5.03
2022-10-23T16:14:09.927Z,5.22
2022-10-23T16:16:37.391Z,4.98
2022-10-23T16:19:04.153Z,4.67
2022-10-23T16:21:31.680Z,4.58
2022-10-23T16:24:01.976Z,4.61
2022-10-23T16:26:34.097Z,4.51
2022-10-23T16:29:01.010Z,4.76
2022-10-23T16:31:28.770Z,4.66
2022-10-23T16:36:29.335Z,4.16
2022-10-23T16:38:58.234Z,5.69
2022-10-23T16:41:30.001Z,4.73
2022-10-23T16:44:04.505Z,4.73
2022-10-23T16:46:33.458Z,3.97
2022-10-23T16:49:02.560Z,4.47
2022-10-23T16:51:33.705Z,3.98
2022-10-23T16:54:01.500Z,3.76
2022-10-23T16:56:28.656Z,4.12
2022-10-23T17:01:27.361Z,4.58
2022-10-23T17:03:54.948Z,4.37
2022-10-23T17:06:25.444Z,4.42
2022-10-23T17:09:04.761Z,4.18
2022-10-23T17:11:31.556Z,3.95
2022-10-23T17:13:59.406Z,4.45
2022-10-23T17:16:29.713Z,4.21
2022-10-23T17:18:57.626Z,4.83
2022-10-23T17:21:24.572Z,4.65
2022-10-23T17:23:52.521Z,4.26
2022-10-23T17:26:20.101Z,4.76
2022-10-23T17:28:48.934Z,4.94
2022-10-23T17:31:18.691Z,4.67
2022-10-23T17:33:46.084Z,4.98
2022-10-23T17:39:36.500Z,4.57
2022-10-23T17:42:05.897Z,4.51
2022-10-23T17:44:32.944Z,5.05
2022-10-23T17:47:01.586Z,4.94
2022-10-23T17:49:28.829Z,5.00
2022-10-23T17:51:57.829Z,5.18
2022-10-23T17:54:24.829Z,5.45
2022-10-23T17:56:51.723Z,5.45
2022-10-23T17:59:19.350Z,5.68
2022-10-23T18:01:46.247Z,5.79
2022-10-23T18:04:15.877Z,7.36
2022-10-23T18:06:53.518Z,6.61
2022-10-23T18:09:22.276Z,6.45
2022-10-23T18:11:49.524Z,6.40
2022-10-23T18:14:16.388Z,7.11
2022-10-23T18:16:43.269Z,6.40
2022-10-23T18:19:10.617Z,6.05
2022-10-23T18:21:41.215Z,6.65
2022-10-23T18:24:10.443Z,6.34
2022-10-23T18:26:38.204Z,6.54
2022-10-23T18:29:05.986Z,6.32
2022-10-23T18:31:34.808Z,6.44
2022-10-23T18:34:02.607Z,6.88
2022-10-23T18:36:31.832Z,7.01
2022-10-23T18:41:40.135Z,6.90
2022-10-23T18:44:11.478Z,7.41
2022-10-23T18:46:39.047Z,7.78
2022-10-23T18:49:06.624Z,7.36
2022-10-23T18:51:35.328Z,8.29
2022-10-23T18:54:02.283Z,7.45
2022-10-23T18:56:29.236Z,7.85
2022-10-23T18:58:56.347Z,7.56
2022-10-23T19:01:25.102Z,7.55
2022-10-23T19:03:52.978Z,7.87
2022-10-23T19:06:19.956Z,7.91
2022-10-23T19:08:46.789Z,7.92
2022-10-23T19:11:14.176Z,7.80
2022-10-23T19:13:41.082Z,8.01
2022-10-23T19:16:07.888Z,8.04
2022-10-23T19:18:38.293Z,7.99
2022-10-23T19:21:05.067Z,7.31
2022-10-23T19:23:31.977Z,7.15
2022-10-23T19:26:07.693Z,6.47
2022-10-23T19:28:37.679Z,6.40
2022-10-23T19:31:05.248Z,6.53
2022-10-23T19:33:32.215Z,6.32
2022-10-23T19:36:05.046Z,6.34
2022-10-23T19:38:42.885Z,6.35
2022-10-23T19:41:09.812Z,6.36
2022-10-23T19:43:36.883Z,6.93
2022-10-23T19:46:06.307Z,6.64
2022-10-23T19:48:37.917Z,6.77
2022-10-23T19:51:05.596Z,7.04
2022-10-23T19:53:32.564Z,7.22
2022-10-23T19:55:59.385Z,6.87
2022-10-23T19:58:26.924Z,7.05
2022-10-23T20:00:53.818Z,6.34
2022-10-23T20:03:21.389Z,6.03
2022-10-23T20:05:50.132Z,5.53
2022-10-23T20:08:17.236Z,5.51
2022-10-23T20:10:44.074Z,5.20
2022-10-23T20:13:20.139Z,5.48
2022-10-23T20:15:47.312Z,4.99
2022-10-23T20:18:14.876Z,4.93
2022-10-23T20:20:41.967Z,5.01
2022-10-23T20:23:09.079Z,5.20
2022-10-23T20:25:35.977Z,5.52
2022-10-23T20:28:02.670Z,5.92
2022-10-23T20:30:30.271Z,5.91
2022-10-23T20:32:59.197Z,5.83
2022-10-23T20:35:26.883Z,6.01
2022-10-23T20:37:53.759Z,5.75
2022-10-23T20:40:20.653Z,5.95
2022-10-23T20:42:47.721Z,6.04
2022-10-23T20:45:14.652Z,6.07
2022-10-23T20:47:45.320Z,6.09
2022-10-23T20:50:14.693Z,5.49
2022-10-23T20:52:41.652Z,5.38
2022-10-23T20:55:08.472Z,5.68
2022-10-23T20:57:36.091Z,5.30
2022-10-23T21:00:03.918Z,5.68
2022-10-23T21:02:35.392Z,6.95
2022-10-23T21:05:02.922Z,7.67
2022-10-23T21:07:30.842Z,7.82
2022-10-23T21:09:59.099Z,7.06
2022-10-23T21:12:25.890Z,6.27
2022-10-23T21:14:53.188Z,6.04
2022-10-23T21:17:27.646Z,5.85
2022-10-23T21:19:55.096Z,5.41
2022-10-23T21:22:22.794Z,5.19
2022-10-23T21:24:49.862Z,5.06
2022-10-23T21:27:16.723Z,5.46
2022-10-23T21:29:43.967Z,5.83
2022-10-23T21:32:22.210Z,5.81
2022-10-23T21:34:49.263Z,5.46
2022-10-23T21:37:16.481Z,5.49
2022-10-23T21:39:45.711Z,5.81
2022-10-23T21:42:15.562Z,5.37
2022-10-23T21:44:44.076Z,5.65
2022-10-23T21:47:12.811Z,5.19
2022-10-23T21:49:39.867Z,5.58
2022-10-23T21:52:06.932Z,5.64
2022-10-23T21:54:33.670Z,5.63
2022-10-23T21:57:01.209Z,5.79
2022-10-23T21:59:33.147Z,5.71
2022-10-23T22:02:02.876Z,5.83
2022-10-23T22:04:30.520Z,5.93
2022-10-23T22:06:57.191Z,6.06
2022-10-23T22:09:25.341Z,6.36
2022-10-23T22:11:52.224Z,6.27
2022-10-23T22:14:21.502Z,6.55
2022-10-23T22:16:48.430Z,5.97
2022-10-23T22:19:15.165Z,5.98
2022-10-23T22:21:42.484Z,6.04
2022-10-23T22:24:11.535Z,5.86
2022-10-23T22:26:40.663Z,5.79
2022-10-23T22:29:09.121Z,5.38
2022-10-23T22:31:39.648Z,5.41
2022-10-23T22:34:18.567Z,5.48
2022-10-23T22:36:53.223Z,4.64
2022-10-23T22:39:19.837Z,4.68
2022-10-23T22:41:46.914Z,5.21
2022-10-23T22:44:13.818Z,4.73
2022-10-23T22:46:40.807Z,4.60
2022-10-23T22:49:07.419Z,3.90
2022-10-23T22:51:38.727Z,2.80
2022-10-23T22:54:06.141Z,2.61
2022-10-23T22:56:34.698Z,2.54
2022-10-23T22:59:02.105Z,2.44
2022-10-23T23:01:29.163Z,2.62
2022-10-23T23:03:58.183Z,3.08
2022-10-23T23:06:28.163Z,3.12
2022-10-23T23:08:55.817Z,2.70
2022-10-23T23:11:22.913Z,2.58
2022-10-23T23:13:49.922Z,2.58
2022-10-23T23:16:16.646Z,2.56
2022-10-23T23:18:44.514Z,2.68
2022-10-23T23:21:11.438Z,2.50
2022-10-23T23:23:38.313Z,2.44
2022-10-23T23:26:05.027Z,2.54
2022-10-23T23:28:36.276Z,2.88
2022-10-23T23:31:03.873Z,2.78
2022-10-23T23:33:32.871Z,2.72
2022-10-23T23:36:01.121Z,2.93
2022-10-23T23:38:28.278Z,2.92
2022-10-23T23:40:56.783Z,2.72
2022-10-23T23:43:24.305Z,2.98
2022-10-23T23:45:51.316Z,2.66
2022-10-23T23:48:18.272Z,2.42
2022-10-23T23:50:47.405Z,2.87
2022-10-23T23:53:14.501Z,3.23
2022-10-23T23:58:10.866Z,3.07
